sensor_id;sensor_type;location;lat;lon;timestamp;pressure;altitude;pressure_sealevel;temperature;humidity
82311;BME280;72015;51.330;12.316;2023-08-07T00:01:44;99180.57;;;14.34;80.83
82311;BME280;72015;51.330;12.316;2023-08-07T00:05:54;99181.22;;;14.41;80.61
82311;BME280;72015;51.330;12.316;2023-08-07T00:10:04;99180.56;;;14.45;80.64
82311;BME280;72015;51.330;12.316;2023-08-07T00:14:13;99181.47;;;14.48;80.89
82311;BME280;72015;51.330;12.316;2023-08-07T00:18:24;99182.45;;;14.55;79.83
82311;BME280;72015;51.330;12.316;2023-08-07T00:22:33;99183.94;;;14.57;80.30
82311;BME280;72015;51.330;12.316;2023-08-07T00:26:44;99185.25;;;14.60;80.60
82311;BME280;72015;51.330;12.316;2023-08-07T00:30:54;99186.89;;;14.61;80.35
82311;BME280;72015;51.330;12.316;2023-08-07T00:35:04;99186.47;;;14.61;80.74
82311;BME280;72015;51.330;12.316;2023-08-07T00:39:14;99186.33;;;14.62;80.58
82311;BME280;72015;51.330;12.316;2023-08-07T00:43:25;99186.33;;;14.62;80.67
82311;BME280;72015;51.330;12.316;2023-08-07T00:47:34;99186.44;;;14.60;80.90
82311;BME280;72015;51.330;12.316;2023-08-07T00:51:44;99187.98;;;14.53;81.69
82311;BME280;72015;51.330;12.316;2023-08-07T00:55:53;99189.26;;;14.48;81.38
82311;BME280;72015;51.330;12.316;2023-08-07T01:00:04;99190.16;;;14.44;81.30
82311;BME280;72015;51.330;12.316;2023-08-07T01:04:14;99191.42;;;14.39;81.89
82311;BME280;72015;51.330;12.316;2023-08-07T01:08:24;99192.47;;;14.40;80.41
82311;BME280;72015;51.330;12.316;2023-08-07T01:12:36;99193.95;;;14.38;80.99
82311;BME280;72015;51.330;12.316;2023-08-07T01:16:45;99195.31;;;14.37;81.03
82311;BME280;72015;51.330;12.316;2023-08-07T01:20:53;99197.37;;;14.40;80.27
82311;BME280;72015;51.330;12.316;2023-08-07T01:25:04;99196.91;;;14.44;80.14
82311;BME280;72015;51.330;12.316;2023-08-07T01:29:18;99197.72;;;14.45;80.18
82311;BME280;72015;51.330;12.316;2023-08-07T01:37:35;99198.94;;;14.45;79.88
82311;BME280;72015;51.330;12.316;2023-08-07T01:41:44;99200.08;;;14.41;80.45
82311;BME280;72015;51.330;12.316;2023-08-07T01:45:54;99201.64;;;14.40;80.49
82311;BME280;72015;51.330;12.316;2023-08-07T01:50:04;99201.90;;;14.39;80.04
82311;BME280;72015;51.330;12.316;2023-08-07T01:54:14;99202.91;;;14.39;80.82
82311;BME280;72015;51.330;12.316;2023-08-07T01:58:24;99204.16;;;14.34;80.12
82311;BME280;72015;51.330;12.316;2023-08-07T02:02:34;99207.60;;;14.33;80.33
82311;BME280;72015;51.330;12.316;2023-08-07T02:06:44;99209.77;;;14.38;79.06
82311;BME280;72015;51.330;12.316;2023-08-07T02:10:54;99213.12;;;14.46;78.32
82311;BME280;72015;51.330;12.316;2023-08-07T02:15:04;99216.16;;;14.52;78.66
82311;BME280;72015;51.330;12.316;2023-08-07T02:19:14;99217.49;;;14.56;78.57
82311;BME280;72015;51.330;12.316;2023-08-07T02:23:24;99218.11;;;14.60;78.43
82311;BME280;72015;51.330;12.316;2023-08-07T02:27:34;99219.00;;;14.58;79.46
82311;BME280;72015;51.330;12.316;2023-08-07T02:31:44;99219.17;;;14.54;79.38
82311;BME280;72015;51.330;12.316;2023-08-07T02:35:54;99220.70;;;14.53;78.36
82311;BME280;72015;51.330;12.316;2023-08-07T02:40:04;99224.25;;;14.49;78.90
82311;BME280;72015;51.330;12.316;2023-08-07T02:44:14;99227.78;;;14.46;79.08
82311;BME280;72015;51.330;12.316;2023-08-07T02:48:24;99230.69;;;14.48;78.15
82311;BME280;72015;51.330;12.316;2023-08-07T02:52:34;99233.12;;;14.50;78.28
82311;BME280;72015;51.330;12.316;2023-08-07T02:56:44;99236.43;;;14.41;79.82
82311;BME280;72015;51.330;12.316;2023-08-07T03:00:54;99239.03;;;14.33;79.60
82311;BME280;72015;51.330;12.316;2023-08-07T03:05:04;99242.78;;;14.33;78.68
82311;BME280;72015;51.330;12.316;2023-08-07T03:09:14;99245.58;;;14.36;78.35
82311;BME280;72015;51.330;12.316;2023-08-07T03:13:24;99246.84;;;14.31;79.45
82311;BME280;72015;51.330;12.316;2023-08-07T03:17:34;99249.41;;;14.23;80.01
82311;BME280;72015;51.330;12.316;2023-08-07T03:21:44;99253.39;;;14.21;79.60
82311;BME280;72015;51.330;12.316;2023-08-07T03:30:04;99260.06;;;14.10;80.48
82311;BME280;72015;51.330;12.316;2023-08-07T03:34:14;99263.86;;;14.08;80.14
82311;BME280;72015;51.330;12.316;2023-08-07T03:38:24;99268.25;;;14.11;80.09
82311;BME280;72015;51.330;12.316;2023-08-07T03:42:34;99272.83;;;14.09;81.22
82311;BME280;72015;51.330;12.316;2023-08-07T03:46:44;99276.96;;;14.09;81.86
82311;BME280;72015;51.330;12.316;2023-08-07T03:51:01;99280.94;;;14.12;81.34
82311;BME280;72015;51.330;12.316;2023-08-07T03:55:04;99284.92;;;14.18;80.31
82311;BME280;72015;51.330;12.316;2023-08-07T03:59:14;99287.03;;;14.22;80.50
82311;BME280;72015;51.330;12.316;2023-08-07T04:03:24;99290.01;;;14.17;81.38
82311;BME280;72015;51.330;12.316;2023-08-07T04:07:34;99293.17;;;14.17;80.09
82311;BME280;72015;51.330;12.316;2023-08-07T04:11:44;99297.90;;;14.12;80.61
82311;BME280;72015;51.330;12.316;2023-08-07T04:15:54;99301.20;;;14.00;82.02
82311;BME280;72015;51.330;12.316;2023-08-07T04:20:04;99305.36;;;13.92;81.73
82311;BME280;72015;51.330;12.316;2023-08-07T04:24:14;99308.31;;;13.84;82.11
82311;BME280;72015;51.330;12.316;2023-08-07T04:28:24;99311.03;;;13.76;81.86
82311;BME280;72015;51.330;12.316;2023-08-07T04:32:34;99313.94;;;13.71;82.10
82311;BME280;72015;51.330;12.316;2023-08-07T04:36:44;99318.17;;;13.69;81.49
82311;BME280;72015;51.330;12.316;2023-08-07T04:40:54;99321.92;;;13.67;81.30
82311;BME280;72015;51.330;12.316;2023-08-07T04:45:04;99325.87;;;13.69;80.41
82311;BME280;72015;51.330;12.316;2023-08-07T04:49:14;99332.42;;;13.72;80.38
82311;BME280;72015;51.330;12.316;2023-08-07T04:53:24;99337.92;;;13.75;80.06
82311;BME280;72015;51.330;12.316;2023-08-07T04:57:34;99343.55;;;13.80;79.14
82311;BME280;72015;51.330;12.316;2023-08-07T05:01:44;99346.84;;;13.84;79.63
82311;BME280;72015;51.330;12.316;2023-08-07T05:06:03;99348.72;;;13.85;79.72
82311;BME280;72015;51.330;12.316;2023-08-07T05:10:04;99351.37;;;13.85;79.70
82311;BME280;72015;51.330;12.316;2023-08-07T05:14:14;99354.77;;;13.86;79.42
82311;BME280;72015;51.330;12.316;2023-08-07T05:18:24;99357.34;;;13.80;80.82
82311;BME280;72015;51.330;12.316;2023-08-07T05:22:34;99359.62;;;13.77;79.87
82311;BME280;72015;51.330;12.316;2023-08-07T05:26:44;99362.45;;;13.77;80.04
82311;BME280;72015;51.330;12.316;2023-08-07T05:30:54;99363.98;;;13.73;80.46
82311;BME280;72015;51.330;12.316;2023-08-07T05:35:07;99365.92;;;13.72;79.91
82311;BME280;72015;51.330;12.316;2023-08-07T05:39:14;99369.36;;;13.76;79.80
82311;BME280;72015;51.330;12.316;2023-08-07T05:43:24;99371.59;;;13.73;80.47
82311;BME280;72015;51.330;12.316;2023-08-07T05:47:34;99376.53;;;13.73;80.09
82311;BME280;72015;51.330;12.316;2023-08-07T05:51:44;99379.49;;;13.76;79.32
82311;BME280;72015;51.330;12.316;2023-08-07T05:55:54;99384.22;;;13.82;79.01
82311;BME280;72015;51.330;12.316;2023-08-07T06:00:07;99386.77;;;13.83;79.73
82311;BME280;72015;51.330;12.316;2023-08-07T06:04:14;99390.28;;;13.84;79.36
82311;BME280;72015;51.330;12.316;2023-08-07T06:08:24;99392.86;;;13.85;79.48
82311;BME280;72015;51.330;12.316;2023-08-07T06:12:34;99394.81;;;13.83;79.55
82311;BME280;72015;51.330;12.316;2023-08-07T06:16:44;99396.56;;;13.86;78.62
82311;BME280;72015;51.330;12.316;2023-08-07T06:20:54;99399.75;;;13.93;78.07
82311;BME280;72015;51.330;12.316;2023-08-07T06:25:04;99403.86;;;13.99;77.99
82311;BME280;72015;51.330;12.316;2023-08-07T06:29:14;99409.73;;;14.06;77.55
82311;BME280;72015;51.330;12.316;2023-08-07T06:33:24;99413.39;;;14.14;76.53
82311;BME280;72015;51.330;12.316;2023-08-07T06:37:34;99417.08;;;14.19;76.50
82311;BME280;72015;51.330;12.316;2023-08-07T06:41:44;99421.31;;;14.24;76.86
82311;BME280;72015;51.330;12.316;2023-08-07T06:45:54;99423.58;;;14.37;76.13
82311;BME280;72015;51.330;12.316;2023-08-07T06:50:04;99427.63;;;14.45;76.25
82311;BME280;72015;51.330;12.316;2023-08-07T06:54:14;99432.06;;;14.50;76.32
82311;BME280;72015;51.330;12.316;2023-08-07T06:58:24;99435.82;;;14.54;75.65
82311;BME280;72015;51.330;12.316;2023-08-07T07:02:34;99439.34;;;14.53;75.92
82311;BME280;72015;51.330;12.316;2023-08-07T07:06:44;99442.17;;;14.56;75.38
82311;BME280;72015;51.330;12.316;2023-08-07T07:10:54;99445.87;;;14.62;75.27
82311;BME280;72015;51.330;12.316;2023-08-07T07:15:04;99448.60;;;14.75;74.27
82311;BME280;72015;51.330;12.316;2023-08-07T07:19:14;99450.92;;;14.86;74.06
82311;BME280;72015;51.330;12.316;2023-08-07T07:23:24;99453.73;;;15.01;73.10
82311;BME280;72015;51.330;12.316;2023-08-07T07:27:34;99460.88;;;15.09;72.61
82311;BME280;72015;51.330;12.316;2023-08-07T07:31:44;99462.22;;;15.15;72.27
82311;BME280;72015;51.330;12.316;2023-08-07T07:35:54;99467.10;;;15.17;73.17
82311;BME280;72015;51.330;12.316;2023-08-07T07:40:04;99471.31;;;15.12;73.27
82311;BME280;72015;51.330;12.316;2023-08-07T07:44:14;99476.44;;;15.13;73.14
82311;BME280;72015;51.330;12.316;2023-08-07T07:48:24;99483.36;;;15.15;73.46
82311;BME280;72015;51.330;12.316;2023-08-07T07:52:34;99486.77;;;15.16;72.99
82311;BME280;72015;51.330;12.316;2023-08-07T07:56:44;99488.73;;;15.20;72.78
82311;BME280;72015;51.330;12.316;2023-08-07T08:00:54;99492.81;;;15.17;73.18
82311;BME280;72015;51.330;12.316;2023-08-07T08:05:04;99498.26;;;15.16;72.68
82311;BME280;72015;51.330;12.316;2023-08-07T08:09:14;99500.55;;;15.18;72.52
82311;BME280;72015;51.330;12.316;2023-08-07T08:13:24;99500.53;;;15.18;72.02
82311;BME280;72015;51.330;12.316;2023-08-07T08:17:34;99502.47;;;15.23;71.98
82311;BME280;72015;51.330;12.316;2023-08-07T08:21:44;99505.00;;;15.22;72.06
82311;BME280;72015;51.330;12.316;2023-08-07T08:25:54;99510.50;;;15.28;71.09
82311;BME280;72015;51.330;12.316;2023-08-07T08:30:04;99510.16;;;15.36;70.67
82311;BME280;72015;51.330;12.316;2023-08-07T08:34:14;99513.20;;;15.47;69.66
82311;BME280;72015;51.330;12.316;2023-08-07T08:38:24;99514.79;;;15.56;69.44
82311;BME280;72015;51.330;12.316;2023-08-07T08:42:34;99518.80;;;15.61;70.32
82311;BME280;72015;51.330;12.316;2023-08-07T08:46:44;99520.12;;;15.72;69.28
82311;BME280;72015;51.330;12.316;2023-08-07T08:50:54;99522.97;;;15.83;69.00
82311;BME280;72015;51.330;12.316;2023-08-07T08:55:04;99526.87;;;15.90;68.93
82311;BME280;72015;51.330;12.316;2023-08-07T08:59:14;99529.94;;;15.91;69.47
82311;BME280;72015;51.330;12.316;2023-08-07T09:03:24;99535.18;;;15.87;70.20
82311;BME280;72015;51.330;12.316;2023-08-07T09:07:34;99540.53;;;15.84;69.91
82311;BME280;72015;51.330;12.316;2023-08-07T09:11:44;99541.85;;;15.82;70.22
82311;BME280;72015;51.330;12.316;2023-08-07T09:15:54;99549.53;;;15.77;70.52
82311;BME280;72015;51.330;12.316;2023-08-07T09:20:04;99550.27;;;15.78;70.03
82311;BME280;72015;51.330;12.316;2023-08-07T09:24:14;99551.67;;;15.78;70.39
82311;BME280;72015;51.330;12.316;2023-08-07T09:28:24;99552.51;;;15.82;69.94
82311;BME280;72015;51.330;12.316;2023-08-07T09:32:34;99553.92;;;15.91;69.03
82311;BME280;72015;51.330;12.316;2023-08-07T09:36:44;99557.65;;;15.98;68.89
82311;BME280;72015;51.330;12.316;2023-08-07T09:40:56;99562.92;;;16.04;67.99
82311;BME280;72015;51.330;12.316;2023-08-07T09:45:11;99571.56;;;16.04;67.91
82311;BME280;72015;51.330;12.316;2023-08-07T09:49:14;99573.22;;;16.05;69.16
82311;BME280;72015;51.330;12.316;2023-08-07T09:53:27;99575.60;;;16.10;67.78
82311;BME280;72015;51.330;12.316;2023-08-07T09:57:34;99575.64;;;16.14;68.34
82311;BME280;72015;51.330;12.316;2023-08-07T10:01:44;99575.69;;;16.13;68.21
82311;BME280;72015;51.330;12.316;2023-08-07T10:05:54;99576.23;;;16.11;68.22
82311;BME280;72015;51.330;12.316;2023-08-07T10:10:04;99575.36;;;16.10;70.81
82311;BME280;72015;51.330;12.316;2023-08-07T10:14:14;99576.25;;;16.02;74.63
82311;BME280;72015;51.330;12.316;2023-08-07T10:18:24;99582.32;;;15.85;75.54
82311;BME280;72015;51.330;12.316;2023-08-07T10:22:34;99582.65;;;15.72;74.48
82311;BME280;72015;51.330;12.316;2023-08-07T10:26:44;99584.86;;;15.61;74.79
82311;BME280;72015;51.330;12.316;2023-08-07T10:30:54;99590.05;;;15.58;73.73
82311;BME280;72015;51.330;12.316;2023-08-07T10:35:04;99594.39;;;15.55;73.77
82311;BME280;72015;51.330;12.316;2023-08-07T10:39:15;99594.48;;;15.57;73.19
82311;BME280;72015;51.330;12.316;2023-08-07T10:43:24;99595.33;;;15.55;72.21
82311;BME280;72015;51.330;12.316;2023-08-07T10:47:34;99592.85;;;15.56;71.39
82311;BME280;72015;51.330;12.316;2023-08-07T10:51:44;99593.81;;;15.72;70.12
82311;BME280;72015;51.330;12.316;2023-08-07T10:55:54;99590.75;;;15.94;67.39
82311;BME280;72015;51.330;12.316;2023-08-07T11:00:04;99590.80;;;16.17;67.30
82311;BME280;72015;51.330;12.316;2023-08-07T11:04:14;99590.10;;;16.29;66.84
82311;BME280;72015;51.330;12.316;2023-08-07T11:08:24;99585.22;;;16.43;65.28
82311;BME280;72015;51.330;12.316;2023-08-07T11:12:34;99583.78;;;16.62;64.74
82311;BME280;72015;51.330;12.316;2023-08-07T11:16:44;99581.45;;;16.80;63.52
82311;BME280;72015;51.330;12.316;2023-08-07T11:20:54;99577.37;;;17.03;62.48
82311;BME280;72015;51.330;12.316;2023-08-07T11:25:04;99575.12;;;17.18;63.44
82311;BME280;72015;51.330;12.316;2023-08-07T11:33:24;99577.12;;;17.26;64.67
82311;BME280;72015;51.330;12.316;2023-08-07T11:37:34;99576.01;;;17.34;63.94
82311;BME280;72015;51.330;12.316;2023-08-07T11:41:44;99577.48;;;17.47;63.59
82311;BME280;72015;51.330;12.316;2023-08-07T11:45:54;99579.85;;;17.58;62.04
82311;BME280;72015;51.330;12.316;2023-08-07T11:50:04;99581.76;;;17.68;61.87
82311;BME280;72015;51.330;12.316;2023-08-07T11:54:14;99584.73;;;17.71;62.75
82311;BME280;72015;51.330;12.316;2023-08-07T11:58:24;99583.54;;;17.79;62.49
82311;BME280;72015;51.330;12.316;2023-08-07T12:02:35;99580.42;;;18.01;61.44
82311;BME280;72015;51.330;12.316;2023-08-07T12:10:54;99575.37;;;18.15;61.49
82311;BME280;72015;51.330;12.316;2023-08-07T12:15:13;99579.10;;;18.15;63.39
82311;BME280;72015;51.330;12.316;2023-08-07T12:19:14;99582.79;;;18.11;64.24
82311;BME280;72015;51.330;12.316;2023-08-07T12:23:24;99587.08;;;18.09;63.82
82311;BME280;72015;51.330;12.316;2023-08-07T12:27:34;99586.02;;;18.16;62.75
82311;BME280;72015;51.330;12.316;2023-08-07T12:31:44;99583.56;;;18.29;62.04
82311;BME280;72015;51.330;12.316;2023-08-07T12:35:54;99587.00;;;18.29;60.58
82311;BME280;72015;51.330;12.316;2023-08-07T12:40:04;99590.40;;;18.26;59.75
82311;BME280;72015;51.330;12.316;2023-08-07T12:44:14;99596.49;;;18.28;60.07
82311;BME280;72015;51.330;12.316;2023-08-07T12:48:24;99604.06;;;18.18;62.10
82311;BME280;72015;51.330;12.316;2023-08-07T12:52:34;99609.99;;;18.04;62.18
82311;BME280;72015;51.330;12.316;2023-08-07T12:56:44;99620.98;;;17.97;61.46
82311;BME280;72015;51.330;12.316;2023-08-07T13:00:54;99628.09;;;17.90;61.38
82311;BME280;72015;51.330;12.316;2023-08-07T13:05:04;99630.44;;;17.92;61.62
82311;BME280;72015;51.330;12.316;2023-08-07T13:09:14;99631.66;;;17.88;62.95
82311;BME280;72015;51.330;12.316;2023-08-07T13:13:24;99634.96;;;17.83;63.58
82311;BME280;72015;51.330;12.316;2023-08-07T13:17:34;99637.62;;;17.87;62.70
82311;BME280;72015;51.330;12.316;2023-08-07T13:21:44;99638.53;;;17.98;60.88
82311;BME280;72015;51.330;12.316;2023-08-07T13:25:54;99637.04;;;18.14;58.66
82311;BME280;72015;51.330;12.316;2023-08-07T13:30:04;99642.47;;;18.28;58.64
82311;BME280;72015;51.330;12.316;2023-08-07T13:34:14;99646.22;;;18.24;61.54
82311;BME280;72015;51.330;12.316;2023-08-07T13:38:24;99645.40;;;18.39;61.71
82311;BME280;72015;51.330;12.316;2023-08-07T13:42:34;99647.30;;;18.62;60.39
82311;BME280;72015;51.330;12.316;2023-08-07T13:46:44;99653.42;;;18.72;63.69
82311;BME280;72015;51.330;12.316;2023-08-07T13:50:54;99660.66;;;18.79;64.85
82311;BME280;72015;51.330;12.316;2023-08-07T13:55:04;99667.60;;;18.76;67.71
82311;BME280;72015;51.330;12.316;2023-08-07T13:59:14;99672.05;;;18.66;66.98
82311;BME280;72015;51.330;12.316;2023-08-07T14:03:24;99675.66;;;18.62;66.79
82311;BME280;72015;51.330;12.316;2023-08-07T14:07:34;99679.22;;;18.61;67.28
82311;BME280;72015;51.330;12.316;2023-08-07T14:11:44;99681.89;;;18.65;66.90
82311;BME280;72015;51.330;12.316;2023-08-07T14:15:54;99685.02;;;18.70;65.21
82311;BME280;72015;51.330;12.316;2023-08-07T14:20:04;99689.37;;;18.53;62.13
82311;BME280;72015;51.330;12.316;2023-08-07T14:24:14;99700.70;;;18.28;64.26
82311;BME280;72015;51.330;12.316;2023-08-07T14:28:24;99707.81;;;18.11;65.78
82311;BME280;72015;51.330;12.316;2023-08-07T14:32:34;99712.13;;;18.04;65.44
82311;BME280;72015;51.330;12.316;2023-08-07T14:36:44;99721.87;;;18.01;65.65
82311;BME280;72015;51.330;12.316;2023-08-07T14:40:54;99731.56;;;17.89;67.32
82311;BME280;72015;51.330;12.316;2023-08-07T14:45:04;99740.44;;;17.66;68.84
82311;BME280;72015;51.330;12.316;2023-08-07T14:49:14;99744.85;;;17.50;69.60
82311;BME280;72015;51.330;12.316;2023-08-07T14:53:24;99750.02;;;17.40;69.03
82311;BME280;72015;51.330;12.316;2023-08-07T14:57:34;99753.04;;;17.46;67.90
82311;BME280;72015;51.330;12.316;2023-08-07T15:01:44;99754.30;;;17.68;65.51
82311;BME280;72015;51.330;12.316;2023-08-07T15:05:54;99758.68;;;18.03;62.90
82311;BME280;72015;51.330;12.316;2023-08-07T15:10:04;99762.30;;;18.28;60.70
82311;BME280;72015;51.330;12.316;2023-08-07T15:14:14;99766.35;;;18.58;58.81
82311;BME280;72015;51.330;12.316;2023-08-07T15:18:24;99771.50;;;18.68;58.95
82311;BME280;72015;51.330;12.316;2023-08-07T15:22:34;99775.69;;;18.66;58.88
82311;BME280;72015;51.330;12.316;2023-08-07T15:26:44;99777.87;;;18.64;58.80
82311;BME280;72015;51.330;12.316;2023-08-07T15:30:54;99780.25;;;18.73;57.87
82311;BME280;72015;51.330;12.316;2023-08-07T15:35:04;99783.28;;;18.63;60.44
82311;BME280;72015;51.330;12.316;2023-08-07T15:39:14;99788.20;;;18.44;60.71
82311;BME280;72015;51.330;12.316;2023-08-07T15:43:24;99794.26;;;18.16;62.65
82311;BME280;72015;51.330;12.316;2023-08-07T15:47:34;99799.48;;;18.13;60.64
82311;BME280;72015;51.330;12.316;2023-08-07T15:51:44;99804.08;;;18.55;55.63
82311;BME280;72015;51.330;12.316;2023-08-07T15:55:54;99808.67;;;19.08;53.51
82311;BME280;72015;51.330;12.316;2023-08-07T16:00:05;99812.78;;;19.42;51.96
82311;BME280;72015;51.330;12.316;2023-08-07T16:04:14;99816.76;;;19.61;52.71
82311;BME280;72015;51.330;12.316;2023-08-07T16:08:24;99823.61;;;19.65;53.50
82311;BME280;72015;51.330;12.316;2023-08-07T16:12:34;99832.64;;;19.52;56.08
82311;BME280;72015;51.330;12.316;2023-08-07T16:16:44;99840.59;;;19.47;56.06
82311;BME280;72015;51.330;12.316;2023-08-07T16:20:54;99848.55;;;19.49;55.54
82311;BME280;72015;51.330;12.316;2023-08-07T16:25:04;99854.35;;;19.51;55.82
82311;BME280;72015;51.330;12.316;2023-08-07T16:29:14;99856.52;;;19.41;56.17
82311;BME280;72015;51.330;12.316;2023-08-07T16:33:24;99859.49;;;19.22;56.49
82311;BME280;72015;51.330;12.316;2023-08-07T16:37:34;99863.22;;;19.06;57.12
82311;BME280;72015;51.330;12.316;2023-08-07T16:41:44;99865.26;;;18.89;56.70
82311;BME280;72015;51.330;12.316;2023-08-07T16:45:54;99869.37;;;18.68;57.11
82311;BME280;72015;51.330;12.316;2023-08-07T16:50:05;99873.21;;;18.55;56.47
82311;BME280;72015;51.330;12.316;2023-08-07T16:54:14;99877.42;;;18.43;56.58
82311;BME280;72015;51.330;12.316;2023-08-07T16:58:24;99879.92;;;18.31;56.74
82311;BME280;72015;51.330;12.316;2023-08-07T17:02:34;99881.52;;;18.22;55.74
82311;BME280;72015;51.330;12.316;2023-08-07T17:06:44;99882.65;;;18.38;52.98
82311;BME280;72015;51.330;12.316;2023-08-07T17:10:54;99883.73;;;18.52;53.02
82311;BME280;72015;51.330;12.316;2023-08-07T17:15:04;99886.52;;;18.61;53.08
82311;BME280;72015;51.330;12.316;2023-08-07T17:19:14;99889.25;;;18.76;52.20
82311;BME280;72015;51.330;12.316;2023-08-07T17:23:24;99891.91;;;18.89;52.53
82311;BME280;72015;51.330;12.316;2023-08-07T17:27:34;99894.04;;;18.85;53.34
82311;BME280;72015;51.330;12.316;2023-08-07T17:31:44;99897.14;;;18.77;54.40
82311;BME280;72015;51.330;12.316;2023-08-07T17:35:54;99902.06;;;18.70;55.42
82311;BME280;72015;51.330;12.316;2023-08-07T17:40:04;99904.55;;;18.54;56.17
82311;BME280;72015;51.330;12.316;2023-08-07T17:44:14;99905.44;;;18.31;56.73
82311;BME280;72015;51.330;12.316;2023-08-07T17:48:24;99908.20;;;18.06;56.65
82311;BME280;72015;51.330;12.316;2023-08-07T17:52:37;99910.41;;;17.83;56.68
82311;BME280;72015;51.330;12.316;2023-08-07T17:56:44;99912.95;;;17.60;56.83
82311;BME280;72015;51.330;12.316;2023-08-07T18:00:54;99915.47;;;17.40;57.04
82311;BME280;72015;51.330;12.316;2023-08-07T18:05:04;99918.91;;;17.21;57.38
82311;BME280;72015;51.330;12.316;2023-08-07T18:09:14;99922.05;;;17.07;57.29
82311;BME280;72015;51.330;12.316;2023-08-07T18:13:24;99924.95;;;16.98;57.44
82311;BME280;72015;51.330;12.316;2023-08-07T18:17:34;99925.76;;;16.87;58.03
82311;BME280;72015;51.330;12.316;2023-08-07T18:21:44;99925.51;;;16.80;57.67
82311;BME280;72015;51.330;12.316;2023-08-07T18:25:54;99929.49;;;16.66;58.12
82311;BME280;72015;51.330;12.316;2023-08-07T18:30:04;99931.37;;;16.46;58.81
82311;BME280;72015;51.330;12.316;2023-08-07T18:34:14;99936.11;;;16.31;58.04
82311;BME280;72015;51.330;12.316;2023-08-07T18:38:24;99941.83;;;16.17;57.98
82311;BME280;72015;51.330;12.316;2023-08-07T18:42:34;99946.41;;;16.06;57.44
82311;BME280;72015;51.330;12.316;2023-08-07T18:46:44;99949.17;;;15.93;57.63
82311;BME280;72015;51.330;12.316;2023-08-07T18:50:54;99951.31;;;15.87;57.44
82311;BME280;72015;51.330;12.316;2023-08-07T18:55:04;99956.75;;;15.77;57.51
82311;BME280;72015;51.330;12.316;2023-08-07T18:59:14;99962.23;;;15.70;57.26
82311;BME280;72015;51.330;12.316;2023-08-07T19:03:24;99966.94;;;15.57;57.70
82311;BME280;72015;51.330;12.316;2023-08-07T19:07:34;99971.08;;;15.46;57.42
82311;BME280;72015;51.330;12.316;2023-08-07T19:11:44;99978.09;;;15.39;57.21
82311;BME280;72015;51.330;12.316;2023-08-07T19:15:55;99982.57;;;15.33;57.30
82311;BME280;72015;51.330;12.316;2023-08-07T19:20:05;99985.83;;;15.36;56.62
82311;BME280;72015;51.330;12.316;2023-08-07T19:24:14;99990.09;;;15.43;55.92
82311;BME280;72015;51.330;12.316;2023-08-07T19:28:24;99992.99;;;15.49;56.05
82311;BME280;72015;51.330;12.316;2023-08-07T19:32:34;99997.39;;;15.56;56.08
82311;BME280;72015;51.330;12.316;2023-08-07T19:36:44;100002.57;;;15.55;56.95
82311;BME280;72015;51.330;12.316;2023-08-07T19:40:54;100006.72;;;15.53;56.81
82311;BME280;72015;51.330;12.316;2023-08-07T19:45:04;100011.45;;;15.50;56.58
82311;BME280;72015;51.330;12.316;2023-08-07T19:49:14;100014.94;;;15.51;56.76
82311;BME280;72015;51.330;12.316;2023-08-07T19:53:24;100018.02;;;15.48;57.28
82311;BME280;72015;51.330;12.316;2023-08-07T19:57:34;100022.66;;;15.43;57.82
82311;BME280;72015;51.330;12.316;2023-08-07T20:01:44;100027.11;;;15.40;57.43
82311;BME280;72015;51.330;12.316;2023-08-07T20:05:54;100029.33;;;15.35;58.01
82311;BME280;72015;51.330;12.316;2023-08-07T20:10:04;100032.58;;;15.32;58.05
82311;BME280;72015;51.330;12.316;2023-08-07T20:14:14;100036.24;;;15.29;58.38
82311;BME280;72015;51.330;12.316;2023-08-07T20:18:24;100040.17;;;15.26;58.39
82311;BME280;72015;51.330;12.316;2023-08-07T20:22:34;100045.23;;;15.23;58.30
82311;BME280;72015;51.330;12.316;2023-08-07T20:26:44;100050.69;;;15.21;58.51
82311;BME280;72015;51.330;12.316;2023-08-07T20:30:54;100055.47;;;15.20;58.64
82311;BME280;72015;51.330;12.316;2023-08-07T20:35:04;100061.50;;;15.14;59.68
82311;BME280;72015;51.330;12.316;2023-08-07T20:39:14;100064.61;;;15.03;60.12
82311;BME280;72015;51.330;12.316;2023-08-07T20:43:24;100068.22;;;14.92;60.29
82311;BME280;72015;51.330;12.316;2023-08-07T20:47:34;100070.29;;;14.81;60.73
82311;BME280;72015;51.330;12.316;2023-08-07T20:51:44;100073.66;;;14.72;61.06
82311;BME280;72015;51.330;12.316;2023-08-07T20:55:54;100076.83;;;14.65;61.39
82311;BME280;72015;51.330;12.316;2023-08-07T21:00:05;100079.55;;;14.59;61.66
82311;BME280;72015;51.330;12.316;2023-08-07T21:04:14;100082.98;;;14.51;61.72
82311;BME280;72015;51.330;12.316;2023-08-07T21:08:24;100085.33;;;14.46;62.31
82311;BME280;72015;51.330;12.316;2023-08-07T21:12:34;100086.86;;;14.41;62.06
82311;BME280;72015;51.330;12.316;2023-08-07T21:16:44;100091.29;;;14.40;61.95
82311;BME280;72015;51.330;12.316;2023-08-07T21:20:54;100091.86;;;14.37;62.45
82311;BME280;72015;51.330;12.316;2023-08-07T21:25:05;100094.45;;;14.29;63.40
82311;BME280;72015;51.330;12.316;2023-08-07T21:29:14;100096.51;;;14.20;63.63
82311;BME280;72015;51.330;12.316;2023-08-07T21:33:24;100097.52;;;14.15;63.96
82311;BME280;72015;51.330;12.316;2023-08-07T21:37:34;100098.29;;;14.06;64.89
82311;BME280;72015;51.330;12.316;2023-08-07T21:41:44;100098.44;;;13.98;65.51
82311;BME280;72015;51.330;12.316;2023-08-07T21:45:54;100100.62;;;13.93;65.73
82311;BME280;72015;51.330;12.316;2023-08-07T21:50:05;100100.92;;;13.87;66.00
82311;BME280;72015;51.330;12.316;2023-08-07T21:54:14;100100.38;;;13.80;66.36
82311;BME280;72015;51.330;12.316;2023-08-07T21:58:24;100099.70;;;13.72;66.83